createdAt,value
2018-12-30T00:01:51.714Z,73.73
2018-12-30T00:04:22.343Z,70.60
2018-12-30T00:06:53.282Z,88.43
2018-12-30T00:09:23.685Z,74.63
2018-12-30T00:11:53.971Z,89.53
2018-12-30T00:14:25.287Z,92.80
2018-12-30T00:16:55.458Z,84.37
2018-12-30T00:19:25.591Z,98.80
2018-12-30T00:21:56.039Z,108.60
2018-12-30T00:24:26.862Z,85.30
2018-12-30T00:26:57.211Z,104.87
2018-12-30T00:29:27.910Z,94.97
2018-12-30T00:31:58.280Z,115.30
2018-12-30T00:34:39.107Z,105.03
2018-12-30T00:37:09.550Z,92.30
2018-12-30T00:39:39.681Z,90.30
2018-12-30T00:42:09.934Z,107.63
2018-12-30T00:44:40.891Z,123.07
2018-12-30T00:47:12.044Z,128.87
2018-12-30T00:49:42.690Z,110.87
2018-12-30T00:52:12.991Z,103.63
2018-12-30T00:54:43.431Z,110.60
2018-12-30T00:57:13.822Z,88.53
2018-12-30T00:59:44.685Z,86.43
2018-12-30T01:02:15.421Z,110.07
2018-12-30T01:04:45.957Z,71.70
2018-12-30T01:07:16.506Z,106.00
2018-12-30T01:09:47.011Z,110.33
2018-12-30T01:12:17.644Z,89.27
2018-12-30T01:14:48.560Z,98.20
2018-12-30T01:17:18.731Z,109.63
2018-12-30T01:19:49.128Z,80.43
2018-12-30T01:22:19.421Z,90.60
2018-12-30T01:24:51.077Z,64.83
2018-12-30T01:27:21.156Z,90.90
2018-12-30T01:29:52.689Z,76.70
2018-12-30T01:32:23.019Z,79.00
2018-12-30T01:34:53.348Z,76.17
2018-12-30T01:37:23.578Z,102.60
2018-12-30T01:39:54.176Z,94.83
2018-12-30T01:42:24.425Z,102.00
2018-12-30T01:44:55.054Z,95.47
2018-12-30T01:47:25.543Z,103.80
2018-12-30T01:49:56.029Z,102.27
2018-12-30T01:52:26.143Z,74.73
2018-12-30T01:54:56.646Z,97.30
2018-12-30T01:57:27.496Z,109.37
2018-12-30T01:59:58.136Z,100.33
2018-12-30T02:02:29.106Z,97.13
2018-12-30T02:04:59.256Z,94.07
2018-12-30T02:07:29.641Z,101.33
2018-12-30T02:09:59.918Z,128.50
2018-12-30T02:12:30.052Z,130.67
2018-12-30T02:15:00.756Z,145.53
2018-12-30T02:17:31.041Z,137.60
2018-12-30T02:20:01.368Z,123.80
2018-12-30T02:22:32.336Z,144.80
2018-12-30T02:25:02.643Z,118.67
2018-12-30T02:27:34.442Z,108.63
2018-12-30T02:30:04.971Z,112.47
2018-12-30T02:32:35.467Z,141.23
2018-12-30T02:35:05.850Z,136.43
2018-12-30T02:37:36.213Z,136.17
2018-12-30T02:40:06.529Z,101.53
2018-12-30T02:42:36.673Z,80.37
2018-12-30T02:45:07.740Z,131.40
2018-12-30T02:47:38.121Z,139.20
2018-12-30T02:50:08.655Z,111.43
2018-12-30T02:52:38.972Z,167.57
2018-12-30T02:55:09.513Z,130.23
2018-12-30T02:57:39.667Z,152.73
2018-12-30T03:00:10.153Z,118.40
2018-12-30T03:02:41.295Z,115.90
2018-12-30T03:05:11.609Z,144.33
2018-12-30T03:07:42.061Z,123.57
2018-12-30T03:10:12.362Z,140.03
2018-12-30T03:12:43.958Z,109.57
2018-12-30T03:15:14.973Z,98.77
2018-12-30T03:17:45.347Z,101.90
2018-12-30T03:20:15.740Z,142.07
2018-12-30T03:22:46.246Z,137.23
2018-12-30T03:25:16.429Z,108.20
2018-12-30T03:27:47.943Z,102.27
2018-12-30T03:30:19.179Z,125.73
2018-12-30T03:32:49.899Z,106.20
2018-12-30T03:35:20.035Z,91.97
2018-12-30T03:37:50.732Z,108.23
2018-12-30T03:40:20.886Z,107.20
2018-12-30T03:42:51.263Z,79.83
2018-12-30T03:45:21.832Z,117.53
2018-12-30T03:47:52.115Z,115.53
2018-12-30T03:50:22.269Z,102.83
2018-12-30T03:52:52.810Z,115.93
2018-12-30T03:55:23.106Z,94.60
2018-12-30T03:57:53.443Z,83.00
2018-12-30T04:00:23.847Z,102.53
2018-12-30T04:02:54.545Z,110.53
2018-12-30T04:05:24.638Z,118.47
2018-12-30T04:07:55.107Z,123.10
2018-12-30T04:10:25.561Z,99.00
2018-12-30T04:12:55.958Z,100.53
2018-12-30T04:15:26.953Z,77.07
2018-12-30T04:17:57.455Z,105.23
2018-12-30T04:20:27.692Z,117.00
2018-12-30T04:22:58.082Z,88.97
2018-12-30T04:25:28.401Z,114.23
2018-12-30T04:27:58.705Z,112.33
2018-12-30T04:30:30.025Z,112.50
2018-12-30T04:33:00.318Z,95.93
2018-12-30T04:35:32.054Z,111.17
2018-12-30T04:38:02.385Z,119.67
2018-12-30T04:40:33.045Z,115.93
2018-12-30T04:43:03.157Z,89.37
2018-12-30T04:45:33.855Z,84.60
2018-12-30T04:48:04.132Z,111.90
2018-12-30T04:50:34.814Z,103.33
2018-12-30T04:53:05.464Z,106.10
2018-12-30T04:55:35.702Z,77.83
2018-12-30T04:58:06.007Z,99.50
2018-12-30T05:00:36.044Z,107.50
2018-12-30T05:03:07.157Z,95.20
2018-12-30T05:05:37.466Z,80.67
2018-12-30T05:08:08.079Z,81.17
2018-12-30T05:10:38.436Z,88.97
2018-12-30T05:13:08.907Z,98.50
2018-12-30T05:15:39.410Z,83.07
2018-12-30T05:18:09.926Z,63.17
2018-12-30T05:20:40.219Z,89.33
2018-12-30T05:23:10.492Z,61.00
2018-12-30T05:25:40.938Z,73.70
2018-12-30T05:28:11.607Z,85.07
2018-12-30T05:30:41.953Z,65.30
2018-12-30T05:33:12.186Z,78.73
2018-12-30T05:35:42.630Z,85.93
2018-12-30T05:38:13.068Z,63.40
2018-12-30T05:40:43.484Z,104.03
2018-12-30T05:43:13.709Z,107.33
2018-12-30T05:45:44.678Z,78.73
2018-12-30T05:48:14.773Z,88.93
2018-12-30T05:50:45.137Z,73.77
2018-12-30T05:53:15.398Z,75.67
2018-12-30T05:55:45.798Z,112.30
2018-12-30T05:58:16.558Z,99.37
2018-12-30T06:00:46.691Z,92.93
2018-12-30T06:03:18.199Z,72.10
2018-12-30T06:05:48.673Z,87.27
2018-12-30T06:08:19.007Z,79.67
2018-12-30T06:10:49.285Z,77.43
2018-12-30T06:13:19.576Z,56.70
2018-12-30T06:15:50.438Z,92.67
2018-12-30T06:18:20.562Z,72.93
2018-12-30T06:20:50.683Z,89.80
2018-12-30T06:23:20.982Z,62.67
2018-12-30T06:25:51.233Z,91.43
2018-12-30T06:28:21.450Z,98.53
2018-12-30T06:30:51.729Z,69.00
2018-12-30T06:33:21.880Z,91.53
2018-12-30T06:35:52.134Z,92.37
2018-12-30T06:38:22.730Z,121.20
2018-12-30T06:40:52.887Z,129.73
2018-12-30T06:43:23.146Z,125.70
2018-12-30T06:45:53.742Z,77.03
2018-12-30T06:48:23.926Z,103.37
2018-12-30T06:50:54.104Z,126.40
2018-12-30T06:53:24.726Z,123.87
2018-12-30T06:55:55.310Z,131.80
2018-12-30T06:58:25.497Z,136.43
2018-12-30T07:00:56.397Z,161.00
2018-12-30T07:03:27.105Z,124.47
2018-12-30T07:05:57.397Z,144.63
2018-12-30T07:08:27.543Z,157.77
2018-12-30T07:10:57.932Z,142.40
2018-12-30T07:13:28.188Z,126.17
2018-12-30T07:15:59.198Z,86.03
2018-12-30T07:18:29.339Z,118.83
2018-12-30T07:20:59.639Z,100.17
2018-12-30T07:23:30.107Z,106.23
2018-12-30T07:26:00.317Z,81.53
2018-12-30T07:28:30.841Z,102.50
2018-12-30T07:31:02.529Z,113.37
2018-12-30T07:33:32.775Z,70.53
2018-12-30T07:36:03.530Z,71.13
2018-12-30T07:38:33.895Z,90.43
2018-12-30T07:41:04.262Z,68.97
2018-12-30T07:43:34.434Z,78.83
2018-12-30T07:46:05.114Z,48.73
2018-12-30T07:48:35.705Z,73.27
2018-12-30T07:51:05.959Z,43.50
2018-12-30T07:53:36.022Z,44.47
2018-12-30T07:56:06.383Z,40.70
2018-12-30T07:58:36.738Z,53.40
2018-12-30T08:01:06.912Z,40.93
2018-12-30T08:03:37.676Z,39.27
2018-12-30T08:06:07.954Z,39.10
2018-12-30T08:08:38.347Z,38.73
2018-12-30T08:11:08.683Z,49.07
2018-12-30T08:13:39.195Z,45.73
2018-12-30T08:16:10.014Z,48.70
2018-12-30T08:18:41.595Z,40.53
2018-12-30T08:21:11.922Z,48.90
2018-12-30T08:23:42.437Z,41.67
2018-12-30T08:26:12.862Z,48.80
2018-12-30T08:28:43.486Z,48.73
2018-12-30T08:31:13.971Z,42.47
2018-12-30T08:33:44.235Z,43.43
2018-12-30T08:36:14.403Z,47.10
2018-12-30T08:38:44.988Z,51.87
2018-12-30T08:41:15.243Z,50.07
2018-12-30T08:43:45.630Z,61.30
2018-12-30T08:46:16.456Z,56.03
2018-12-30T08:48:46.685Z,64.20
2018-12-30T08:51:17.020Z,66.00
2018-12-30T08:53:47.661Z,67.03
2018-12-30T08:56:17.991Z,56.40
2018-12-30T08:58:48.150Z,70.07
2018-12-30T09:01:18.609Z,55.93
2018-12-30T09:03:49.846Z,54.07
2018-12-30T09:06:20.286Z,54.97
2018-12-30T09:08:50.432Z,55.87
2018-12-30T09:11:21.658Z,56.00
2018-12-30T09:13:51.950Z,52.03
2018-12-30T09:16:22.717Z,51.20
2018-12-30T09:18:52.918Z,53.63
2018-12-30T09:21:23.557Z,56.77
2018-12-30T09:23:54.440Z,52.17
2018-12-30T09:26:24.847Z,51.13
2018-12-30T09:28:55.340Z,46.07
2018-12-30T09:31:25.839Z,66.20
2018-12-30T09:33:56.277Z,55.53
2018-12-30T09:36:26.721Z,60.07
2018-12-30T09:38:57.217Z,61.33
2018-12-30T09:41:27.665Z,58.63
2018-12-30T09:43:57.840Z,91.50
2018-12-30T09:46:28.554Z,90.47
2018-12-30T09:48:58.583Z,54.77
2018-12-30T09:51:29.118Z,69.07
2018-12-30T09:53:59.606Z,49.63
2018-12-30T09:56:30.705Z,79.43
2018-12-30T09:59:00.895Z,56.63
2018-12-30T10:01:34.156Z,53.50
2018-12-30T10:04:05.132Z,72.10
2018-12-30T10:06:35.392Z,46.73
2018-12-30T10:09:07.579Z,66.77
2018-12-30T10:11:38.331Z,70.40
2018-12-30T10:14:08.515Z,45.57
2018-12-30T10:16:39.419Z,58.87
2018-12-30T10:19:10.122Z,63.27
2018-12-30T10:21:40.431Z,43.97
2018-12-30T10:24:10.705Z,43.87
2018-12-30T10:26:40.966Z,43.70
2018-12-30T10:29:11.471Z,44.83
2018-12-30T10:31:43.055Z,42.83
2018-12-30T10:34:13.521Z,41.80
2018-12-30T10:36:44.137Z,33.03
2018-12-30T10:39:14.367Z,41.77
2018-12-30T10:41:44.711Z,36.57
2018-12-30T10:44:15.112Z,29.50
2018-12-30T10:46:45.747Z,39.83
2018-12-30T10:49:16.357Z,35.17
2018-12-30T10:51:46.659Z,30.13
2018-12-30T10:54:17.098Z,31.17
2018-12-30T10:56:47.331Z,30.83
2018-12-30T10:59:17.840Z,27.20
2018-12-30T11:01:48.453Z,28.17
2018-12-30T11:04:19.558Z,36.03
2018-12-30T11:06:50.027Z,35.43
2018-12-30T11:09:20.206Z,30.23
2018-12-30T11:11:50.682Z,38.37
2018-12-30T11:14:21.101Z,31.10
2018-12-30T11:16:51.683Z,32.27
2018-12-30T11:19:22.069Z,30.20
2018-12-30T11:21:52.330Z,27.03
2018-12-30T11:24:22.676Z,34.97
2018-12-30T11:26:53.160Z,36.83
2018-12-30T11:29:23.531Z,37.30
2018-12-30T11:31:54.024Z,34.97
2018-12-30T11:34:24.415Z,30.17
2018-12-30T11:36:54.929Z,46.03
2018-12-30T11:39:25.018Z,47.70
2018-12-30T11:41:55.519Z,35.70
2018-12-30T11:44:25.881Z,31.70
2018-12-30T11:46:56.985Z,28.57
2018-12-30T11:49:28.714Z,36.57
2018-12-30T11:51:59.354Z,33.30
2018-12-30T11:54:29.822Z,37.00
2018-12-30T11:57:00.312Z,36.53
2018-12-30T11:59:31.306Z,35.73
2018-12-30T12:02:02.127Z,39.03
2018-12-30T12:04:33.381Z,41.93
2018-12-30T12:07:03.831Z,44.33
2018-12-30T12:09:34.578Z,47.20
2018-12-30T12:12:05.020Z,50.97
2018-12-30T12:14:35.331Z,51.60
2018-12-30T12:17:06.055Z,44.63
2018-12-30T12:19:36.344Z,42.80
2018-12-30T12:22:07.033Z,54.37
2018-12-30T12:24:37.235Z,54.17
2018-12-30T12:27:07.674Z,46.63
2018-12-30T12:29:38.293Z,57.27
2018-12-30T12:32:08.700Z,46.77
2018-12-30T12:34:39.137Z,44.83
2018-12-30T12:37:09.525Z,49.37
2018-12-30T12:39:39.897Z,52.00
2018-12-30T12:42:10.380Z,45.93
2018-12-30T12:44:40.982Z,57.13
2018-12-30T12:47:11.587Z,45.03
2018-12-30T12:49:42.411Z,53.20
2018-12-30T12:52:13.387Z,47.43
2018-12-30T12:54:43.774Z,49.33
2018-12-30T12:57:15.091Z,41.20
2018-12-30T12:59:45.835Z,50.83
2018-12-30T13:02:16.291Z,48.27
2018-12-30T13:04:47.822Z,55.47
2018-12-30T13:07:19.183Z,47.03
2018-12-30T13:09:50.127Z,54.43
2018-12-30T13:12:20.284Z,55.67
2018-12-30T13:14:50.526Z,50.77
2018-12-30T13:17:21.278Z,56.47
2018-12-30T13:19:51.648Z,58.87
2018-12-30T13:22:21.811Z,62.93
2018-12-30T13:24:52.245Z,74.83
2018-12-30T13:27:22.533Z,69.17
2018-12-30T13:29:53.002Z,71.23
2018-12-30T13:32:24.525Z,77.40
2018-12-30T13:34:54.815Z,66.07
2018-12-30T13:37:25.351Z,56.67
2018-12-30T13:39:55.726Z,57.17
2018-12-30T13:42:26.308Z,71.83
2018-12-30T13:44:56.532Z,61.00
2018-12-30T13:47:27.231Z,59.43
2018-12-30T13:49:57.758Z,59.00
2018-12-30T13:52:29.169Z,71.73
2018-12-30T13:54:59.564Z,60.53
2018-12-30T13:57:29.945Z,49.07
2018-12-30T14:00:00.260Z,50.13
2018-12-30T14:02:30.848Z,47.30
2018-12-30T14:05:01.829Z,48.50
2018-12-30T14:07:32.071Z,53.30
2018-12-30T14:10:02.509Z,47.70
2018-12-30T14:12:32.858Z,41.40
2018-12-30T14:15:03.546Z,39.43
2018-12-30T14:17:35.079Z,46.43
2018-12-30T14:20:05.550Z,49.87
2018-12-30T14:22:35.656Z,52.13
2018-12-30T14:25:06.591Z,69.03
2018-12-30T14:27:36.800Z,63.93
2018-12-30T14:30:08.069Z,63.60
2018-12-30T14:32:38.295Z,51.30
2018-12-30T14:35:08.587Z,109.87
2018-12-30T14:37:39.130Z,64.77
2018-12-30T14:40:09.471Z,65.20
2018-12-30T14:42:39.578Z,60.10
2018-12-30T14:45:09.883Z,64.07
2018-12-30T14:47:40.544Z,66.77
2018-12-30T14:50:12.891Z,50.17
2018-12-30T14:52:43.039Z,52.63
2018-12-30T14:55:14.091Z,47.80
2018-12-30T14:57:45.168Z,43.53
2018-12-30T15:00:15.925Z,47.53
2018-12-30T15:02:46.322Z,36.83
2018-12-30T15:05:17.696Z,37.43
2018-12-30T15:07:48.194Z,40.00
2018-12-30T15:10:18.766Z,34.83
2018-12-30T15:12:49.183Z,32.20
2018-12-30T15:15:19.522Z,38.70
2018-12-30T15:17:50.311Z,45.10
2018-12-30T15:20:20.729Z,37.83
2018-12-30T15:22:51.051Z,42.50
2018-12-30T15:25:21.422Z,45.30
2018-12-30T15:27:51.599Z,52.77
2018-12-30T15:30:22.031Z,54.60
2018-12-30T15:32:52.347Z,52.07
2018-12-30T15:35:22.680Z,97.90
2018-12-30T15:37:53.058Z,83.23
2018-12-30T15:40:23.501Z,67.90
2018-12-30T15:42:53.753Z,70.37
2018-12-30T15:45:23.963Z,63.27
2018-12-30T15:47:54.643Z,67.80
2018-12-30T15:50:25.801Z,72.90
2018-12-30T15:52:56.431Z,63.33
2018-12-30T15:55:26.947Z,57.73
2018-12-30T15:57:57.452Z,56.70
2018-12-30T16:00:27.950Z,60.47
2018-12-30T16:02:58.843Z,53.80
2018-12-30T16:05:29.940Z,48.83
2018-12-30T16:08:00.450Z,54.67
2018-12-30T16:10:30.724Z,58.33
2018-12-30T16:13:01.751Z,53.60
2018-12-30T16:15:32.020Z,55.60
2018-12-30T16:18:02.700Z,62.33
2018-12-30T16:20:32.844Z,65.40
2018-12-30T16:23:03.324Z,62.40
2018-12-30T16:25:33.636Z,54.37
2018-12-30T16:28:03.947Z,54.60
2018-12-30T16:30:34.140Z,67.97
2018-12-30T16:33:04.645Z,57.60
2018-12-30T16:35:35.037Z,49.83
2018-12-30T16:38:05.581Z,61.70
2018-12-30T16:40:36.024Z,55.10
2018-12-30T16:43:06.319Z,62.20
2018-12-30T16:45:36.732Z,65.97
2018-12-30T16:48:07.536Z,60.17
2018-12-30T16:50:37.713Z,58.27
2018-12-30T16:53:08.206Z,58.17
2018-12-30T16:55:38.309Z,68.53
2018-12-30T16:58:08.821Z,54.13
2018-12-30T17:00:39.110Z,54.57
2018-12-30T17:03:09.474Z,59.40
2018-12-30T17:05:40.580Z,74.63
2018-12-30T17:08:10.720Z,64.63
2018-12-30T17:10:41.229Z,54.43
2018-12-30T17:13:11.656Z,76.77
2018-12-30T17:15:42.177Z,66.33
2018-12-30T17:18:12.886Z,74.77
2018-12-30T17:20:43.440Z,76.67
2018-12-30T17:23:13.643Z,73.97
2018-12-30T17:25:44.096Z,73.10
2018-12-30T17:28:14.266Z,68.23
2018-12-30T17:30:45.023Z,123.57
2018-12-30T17:33:15.472Z,280.03
2018-12-30T17:35:46.289Z,399.77
2018-12-30T17:38:16.731Z,374.50
2018-12-30T17:40:47.408Z,127.07
2018-12-30T17:43:17.703Z,92.07
2018-12-30T17:45:48.022Z,85.90
2018-12-30T17:48:18.863Z,71.63
2018-12-30T17:50:49.196Z,83.30
2018-12-30T17:53:19.860Z,80.53
2018-12-30T17:55:51.019Z,167.47
2018-12-30T17:58:21.539Z,232.43
2018-12-30T18:00:52.081Z,100.97
2018-12-30T18:03:22.294Z,96.70
2018-12-30T18:05:53.885Z,84.00
2018-12-30T18:08:24.136Z,81.70
2018-12-30T18:10:54.795Z,57.07
2018-12-30T18:13:25.382Z,62.63
2018-12-30T18:15:55.681Z,92.47
2018-12-30T18:18:26.397Z,110.53
2018-12-30T18:20:56.676Z,99.67
2018-12-30T18:23:26.900Z,63.77
2018-12-30T18:25:58.687Z,44.70
2018-12-30T18:28:29.255Z,43.20
2018-12-30T18:31:00.659Z,52.83
2018-12-30T18:33:31.391Z,47.70
2018-12-30T18:36:01.752Z,36.43
2018-12-30T18:38:32.155Z,36.97
2018-12-30T18:41:02.746Z,35.20
2018-12-30T18:43:33.234Z,44.80
2018-12-30T18:46:03.559Z,42.20
2018-12-30T18:48:34.283Z,43.13
2018-12-30T18:51:04.419Z,32.07
2018-12-30T18:53:35.781Z,35.40
2018-12-30T18:56:06.798Z,28.00
2018-12-30T18:58:38.844Z,29.07
2018-12-30T19:01:09.096Z,28.60
2018-12-30T19:03:39.617Z,28.97
2018-12-30T19:06:10.838Z,28.07
2018-12-30T19:08:41.238Z,30.70
2018-12-30T19:11:11.996Z,35.17
2018-12-30T19:13:42.510Z,30.30
2018-12-30T19:16:12.943Z,32.30
2018-12-30T19:18:43.835Z,37.87
2018-12-30T19:21:14.072Z,36.03
2018-12-30T19:23:45.693Z,30.37
2018-12-30T19:26:16.158Z,28.83
2018-12-30T19:28:46.394Z,31.83
2018-12-30T19:31:16.844Z,27.50
2018-12-30T19:33:47.546Z,26.70
2018-12-30T19:36:17.922Z,29.40
2018-12-30T19:38:48.294Z,28.33
2018-12-30T19:41:19.646Z,23.70
2018-12-30T19:43:50.002Z,23.80
2018-12-30T19:46:20.362Z,28.03
2018-12-30T19:48:51.165Z,24.00
2018-12-30T19:51:21.452Z,28.07
2018-12-30T19:53:51.919Z,24.60
2018-12-30T19:56:22.317Z,24.90
2018-12-30T19:58:52.976Z,19.87
2018-12-30T20:01:23.487Z,28.83
2018-12-30T20:03:55.359Z,22.93
2018-12-30T20:06:26.417Z,26.17
2018-12-30T20:08:57.116Z,22.23
2018-12-30T20:11:27.523Z,20.80
2018-12-30T20:13:57.886Z,27.40
2018-12-30T20:16:28.020Z,24.37
2018-12-30T20:18:59.000Z,23.83
2018-12-30T20:21:29.491Z,22.53
2018-12-30T20:23:59.586Z,21.97
2018-12-30T20:26:30.225Z,23.13
2018-12-30T20:29:00.510Z,36.10
2018-12-30T20:31:30.934Z,33.53
2018-12-30T20:34:01.225Z,36.40
2018-12-30T20:36:32.119Z,37.10
2018-12-30T20:39:02.509Z,38.83
2018-12-30T20:41:34.277Z,42.77
2018-12-30T20:44:04.755Z,40.33
2018-12-30T20:46:35.521Z,43.90
2018-12-30T20:49:06.061Z,34.57
2018-12-30T20:51:36.525Z,35.40
2018-12-30T20:54:06.924Z,39.00
2018-12-30T20:56:37.767Z,37.33
2018-12-30T20:59:08.323Z,47.37
2018-12-30T21:01:38.615Z,56.10
2018-12-30T21:04:08.990Z,56.30
2018-12-30T21:06:40.772Z,46.73
2018-12-30T21:09:11.314Z,43.33
2018-12-30T21:11:42.068Z,56.93
2018-12-30T21:14:12.366Z,55.53
2018-12-30T21:16:42.899Z,47.87
2018-12-30T21:19:13.834Z,60.00
2018-12-30T21:21:44.060Z,54.87
2018-12-30T21:24:14.480Z,73.10
2018-12-30T21:26:45.468Z,56.90
2018-12-30T21:29:16.006Z,61.33
2018-12-30T21:31:46.205Z,54.80
2018-12-30T21:34:16.929Z,57.37
2018-12-30T21:36:47.476Z,61.70
2018-12-30T21:39:17.714Z,68.63
2018-12-30T21:41:48.576Z,64.23
2018-12-30T21:44:18.889Z,70.20
2018-12-30T21:46:49.169Z,65.73
2018-12-30T21:49:19.996Z,59.07
2018-12-30T21:51:50.194Z,55.67
2018-12-30T21:54:20.965Z,50.73
2018-12-30T21:56:54.843Z,61.50
2018-12-30T21:59:23.154Z,55.17
2018-12-30T22:01:53.687Z,60.40
2018-12-30T22:04:24.885Z,84.30
2018-12-30T22:06:56.869Z,67.90
2018-12-30T22:09:27.208Z,53.53
2018-12-30T22:11:57.761Z,59.60
2018-12-30T22:14:28.008Z,58.13
2018-12-30T22:16:58.436Z,60.87
2018-12-30T22:19:29.128Z,54.10
2018-12-30T22:21:59.421Z,64.63
2018-12-30T22:24:29.638Z,62.37
2018-12-30T22:26:59.947Z,61.93
2018-12-30T22:29:30.237Z,61.60
2018-12-30T22:32:00.430Z,61.30
2018-12-30T22:34:30.705Z,62.40
2018-12-30T22:37:01.013Z,49.30
2018-12-30T22:39:31.244Z,65.13
2018-12-30T22:42:01.962Z,64.70
2018-12-30T22:44:32.265Z,57.03
2018-12-30T22:47:02.547Z,69.63
2018-12-30T22:49:33.249Z,71.47
2018-12-30T22:52:03.413Z,57.17
2018-12-30T22:54:33.719Z,84.07
2018-12-30T22:57:04.003Z,64.00
2018-12-30T22:59:34.171Z,55.20
2018-12-30T23:02:04.556Z,59.67
2018-12-30T23:04:35.923Z,60.17
2018-12-30T23:07:07.331Z,67.30
2018-12-30T23:09:37.869Z,57.03
2018-12-30T23:12:08.324Z,51.63
2018-12-30T23:14:38.643Z,49.97
2018-12-30T23:17:09.182Z,50.67
2018-12-30T23:19:39.745Z,66.97
2018-12-30T23:22:10.010Z,69.63
2018-12-30T23:24:40.272Z,70.47
2018-12-30T23:27:11.065Z,56.10
2018-12-30T23:29:41.507Z,77.27
2018-12-30T23:32:12.027Z,68.83
2018-12-30T23:34:42.371Z,74.47
2018-12-30T23:37:12.935Z,69.13
2018-12-30T23:39:43.319Z,80.23
2018-12-30T23:42:13.862Z,99.53
2018-12-30T23:44:43.980Z,70.33
2018-12-30T23:47:14.400Z,74.87
2018-12-30T23:49:44.759Z,80.23
2018-12-30T23:52:16.126Z,67.90
2018-12-30T23:54:46.374Z,84.80
2018-12-30T23:57:17.215Z,80.43
2018-12-30T23:59:47.667Z,71.50
